createdAt,value
2022-08-21T00:02:01.650Z,1.02
2022-08-21T00:04:29.498Z,1.00
2022-08-21T00:06:57.078Z,0.90
2022-08-21T00:09:23.598Z,1.02
2022-08-21T00:11:50.079Z,0.70
2022-08-21T00:14:16.996Z,0.88
2022-08-21T00:16:43.655Z,0.95
2022-08-21T00:19:10.157Z,0.75
2022-08-21T00:21:36.806Z,0.90
2022-08-21T00:24:03.365Z,0.82
2022-08-21T00:26:29.844Z,0.85
2022-08-21T00:28:56.320Z,0.88
2022-08-21T00:31:25.454Z,0.90
2022-08-21T00:33:52.670Z,0.77
2022-08-21T00:36:25.933Z,0.80
2022-08-21T00:38:52.374Z,1.20
2022-08-21T00:41:36.420Z,0.95
2022-08-21T00:44:04.992Z,1.00
2022-08-21T00:46:31.742Z,0.80
2022-08-21T00:48:58.863Z,0.70
2022-08-21T00:51:38.207Z,0.52
2022-08-21T00:54:05.772Z,0.82
2022-08-21T00:56:32.333Z,0.80
2022-08-21T00:58:59.768Z,0.70
2022-08-21T01:01:26.267Z,0.88
2022-08-21T01:03:52.899Z,0.70
2022-08-21T01:06:19.408Z,0.80
2022-08-21T01:08:46.892Z,0.73
2022-08-21T01:11:14.735Z,0.80
2022-08-21T01:13:47.046Z,0.80
2022-08-21T01:16:15.592Z,0.57
2022-08-21T01:18:42.058Z,0.85
2022-08-21T01:21:19.502Z,0.70
2022-08-21T01:23:49.222Z,0.70
2022-08-21T01:26:17.262Z,0.80
2022-08-21T01:28:48.619Z,0.77
2022-08-21T01:31:15.985Z,0.95
2022-08-21T01:33:43.454Z,0.57
2022-08-21T01:36:09.963Z,0.70
2022-08-21T01:38:36.817Z,0.88
2022-08-21T01:41:03.364Z,0.70
2022-08-21T01:43:35.697Z,0.80
2022-08-21T01:46:05.965Z,0.70
2022-08-21T01:48:32.934Z,0.80
2022-08-21T01:50:59.979Z,0.80
2022-08-21T01:53:27.813Z,0.80
2022-08-21T01:55:59.988Z,0.70
2022-08-21T01:58:26.451Z,0.68
2022-08-21T02:00:53.027Z,0.68
2022-08-21T02:03:23.252Z,0.70
2022-08-21T02:05:59.237Z,0.70
2022-08-21T02:08:25.727Z,0.70
2022-08-21T02:10:52.629Z,0.60
2022-08-21T02:13:19.249Z,0.70
2022-08-21T02:15:45.790Z,0.73
2022-08-21T02:18:12.663Z,0.60
2022-08-21T02:20:44.247Z,0.60
2022-08-21T02:23:11.758Z,0.60
2022-08-21T02:25:38.888Z,0.60
2022-08-21T02:28:07.112Z,0.50
2022-08-21T02:30:35.392Z,0.60
2022-08-21T02:33:02.075Z,0.50
2022-08-21T02:35:28.876Z,0.60
2022-08-21T02:37:57.473Z,0.50
2022-08-21T02:40:25.549Z,0.43
2022-08-21T02:42:52.121Z,0.60
2022-08-21T02:45:18.807Z,0.50
2022-08-21T02:47:49.329Z,0.45
2022-08-21T02:50:18.237Z,0.50
2022-08-21T02:52:46.299Z,0.40
2022-08-21T02:55:18.256Z,0.45
2022-08-21T02:57:44.825Z,0.50
2022-08-21T03:00:13.122Z,0.55
2022-08-21T03:02:39.678Z,0.30
2022-08-21T03:05:07.348Z,0.40
2022-08-21T03:07:33.808Z,0.40
2022-08-21T03:10:00.254Z,0.38
2022-08-21T03:12:29.816Z,0.40
2022-08-21T03:14:56.656Z,0.40
2022-08-21T03:17:29.602Z,0.40
2022-08-21T03:19:57.566Z,0.38
2022-08-21T03:22:24.040Z,0.40
2022-08-21T03:24:50.928Z,0.50
2022-08-21T03:27:18.332Z,0.40
2022-08-21T03:29:46.533Z,0.32
2022-08-21T03:32:13.006Z,0.30
2022-08-21T03:34:39.665Z,0.38
2022-08-21T03:37:07.185Z,0.40
2022-08-21T03:39:35.107Z,0.30
2022-08-21T03:42:02.200Z,0.25
2022-08-21T03:44:30.037Z,0.30
2022-08-21T03:46:57.194Z,0.25
2022-08-21T03:49:24.621Z,0.20
2022-08-21T03:51:59.656Z,0.28
2022-08-21T03:54:26.599Z,0.20
2022-08-21T03:56:55.683Z,0.20
2022-08-21T03:59:22.129Z,0.20
2022-08-21T04:01:52.802Z,0.30
2022-08-21T04:04:19.347Z,0.20
2022-08-21T04:06:45.790Z,0.40
2022-08-21T04:09:12.235Z,0.30
2022-08-21T04:11:38.707Z,0.20
2022-08-21T04:14:05.544Z,0.22
2022-08-21T04:16:32.021Z,0.25
2022-08-21T04:18:58.442Z,0.20
2022-08-21T04:21:25.070Z,0.30
2022-08-21T04:23:51.677Z,0.30
2022-08-21T04:26:18.230Z,0.30
2022-08-21T04:28:44.847Z,0.30
2022-08-21T04:31:11.806Z,0.30
2022-08-21T04:33:38.337Z,0.20
2022-08-21T04:36:05.091Z,0.30
2022-08-21T04:38:36.436Z,0.20
2022-08-21T04:41:05.872Z,0.20
2022-08-21T04:43:32.573Z,0.22
2022-08-21T04:45:59.027Z,0.30
2022-08-21T04:48:25.538Z,0.20
2022-08-21T04:50:52.149Z,0.30
2022-08-21T04:53:31.439Z,0.20
2022-08-21T04:55:58.728Z,0.30
2022-08-21T04:58:26.813Z,0.20
2022-08-21T05:00:54.713Z,0.20
2022-08-21T05:03:22.530Z,0.30
2022-08-21T05:05:49.401Z,0.20
2022-08-21T05:08:17.466Z,0.20
2022-08-21T05:10:45.082Z,0.20
2022-08-21T05:13:12.242Z,0.20
2022-08-21T05:15:38.712Z,0.25
2022-08-21T05:18:05.562Z,0.20
2022-08-21T05:20:32.136Z,0.20
2022-08-21T05:22:58.903Z,0.20
2022-08-21T05:25:26.178Z,0.22
2022-08-21T05:27:54.764Z,0.30
2022-08-21T05:30:21.546Z,0.20
2022-08-21T05:32:48.715Z,0.30
2022-08-21T05:35:15.725Z,0.20
2022-08-21T05:37:42.162Z,0.20
2022-08-21T05:40:21.600Z,0.20
2022-08-21T05:42:54.422Z,0.22
2022-08-21T05:48:19.438Z,0.30
2022-08-21T05:50:47.184Z,0.20
2022-08-21T05:53:14.306Z,0.28
2022-08-21T05:55:45.896Z,0.20
2022-08-21T05:58:13.784Z,0.20
2022-08-21T06:00:40.625Z,0.30
2022-08-21T06:03:11.482Z,0.20
2022-08-21T06:05:38.754Z,0.20
2022-08-21T06:08:05.584Z,0.30
2022-08-21T06:10:32.343Z,0.20
2022-08-21T06:12:58.990Z,0.30
2022-08-21T06:15:25.654Z,0.20
2022-08-21T06:17:53.150Z,0.30
2022-08-21T06:20:19.653Z,0.20
2022-08-21T06:22:46.137Z,0.30
2022-08-21T06:25:12.648Z,0.30
2022-08-21T06:27:39.158Z,0.28
2022-08-21T06:30:06.543Z,0.45
2022-08-21T06:32:33.069Z,0.10
2022-08-21T06:34:59.732Z,0.20
2022-08-21T06:37:26.171Z,0.20
2022-08-21T06:39:53.179Z,0.20
2022-08-21T06:42:19.747Z,0.30
2022-08-21T06:44:46.662Z,0.20
2022-08-21T06:47:13.106Z,0.30
2022-08-21T06:49:39.540Z,0.60
2022-08-21T06:52:09.459Z,0.20
2022-08-21T06:54:35.897Z,0.20
2022-08-21T06:57:05.428Z,0.20
2022-08-21T06:59:32.765Z,0.30
2022-08-21T07:01:59.718Z,0.20
2022-08-21T07:04:26.253Z,0.30
2022-08-21T07:06:52.864Z,0.35
2022-08-21T07:09:23.968Z,0.20
2022-08-21T07:11:52.390Z,0.28
2022-08-21T07:14:20.199Z,0.28
2022-08-21T07:16:47.150Z,0.20
2022-08-21T07:19:13.669Z,0.20
2022-08-21T07:21:40.196Z,0.20
2022-08-21T07:24:06.747Z,0.20
2022-08-21T07:26:33.221Z,0.20
2022-08-21T07:28:59.728Z,0.30
2022-08-21T07:31:27.180Z,0.30
2022-08-21T07:33:54.242Z,0.40
2022-08-21T07:36:21.021Z,0.20
2022-08-21T07:38:47.538Z,0.20
2022-08-21T07:41:15.761Z,0.20
2022-08-21T07:43:46.000Z,0.40
2022-08-21T07:46:13.601Z,0.50
2022-08-21T07:48:40.561Z,0.30
2022-08-21T07:51:08.352Z,0.30
2022-08-21T07:53:35.254Z,0.30
2022-08-21T07:56:01.750Z,0.50
2022-08-21T07:58:28.253Z,0.40
2022-08-21T08:00:54.733Z,0.40
2022-08-21T08:03:28.761Z,0.50
2022-08-21T08:05:55.619Z,0.40
2022-08-21T08:08:22.071Z,0.40
2022-08-21T08:10:50.565Z,0.40
2022-08-21T08:13:17.512Z,0.60
2022-08-21T08:15:44.094Z,0.50
2022-08-21T08:18:10.712Z,0.50
2022-08-21T08:20:37.213Z,0.45
2022-08-21T08:23:04.260Z,0.57
2022-08-21T08:25:36.236Z,0.50
2022-08-21T08:28:03.918Z,0.60
2022-08-21T08:30:43.543Z,0.32
2022-08-21T08:33:10.646Z,0.70
2022-08-21T08:35:39.259Z,0.52
2022-08-21T08:38:06.022Z,0.60
2022-08-21T08:40:36.812Z,0.38
2022-08-21T08:43:06.384Z,0.65
2022-08-21T08:45:35.147Z,0.50
2022-08-21T08:48:04.834Z,0.75
2022-08-21T08:50:31.894Z,0.40
2022-08-21T08:53:01.256Z,0.40
2022-08-21T08:55:32.503Z,0.52
2022-08-21T08:57:59.062Z,0.50
2022-08-21T09:00:25.851Z,0.40
2022-08-21T09:02:57.309Z,0.40
2022-08-21T09:05:26.240Z,0.60
2022-08-21T09:07:58.633Z,0.73
2022-08-21T09:10:37.235Z,0.50
2022-08-21T09:13:03.673Z,0.40
2022-08-21T09:15:33.531Z,0.57
2022-08-21T09:18:07.594Z,0.50
2022-08-21T09:20:40.735Z,0.40
2022-08-21T09:23:13.022Z,0.43
2022-08-21T09:25:43.778Z,0.52
2022-08-21T09:28:13.409Z,0.57
2022-08-21T09:30:40.352Z,0.40
2022-08-21T09:33:07.366Z,0.60
2022-08-21T09:35:36.165Z,0.40
2022-08-21T09:38:06.592Z,0.50
2022-08-21T09:40:40.951Z,0.40
2022-08-21T09:43:10.494Z,0.40
2022-08-21T09:45:37.059Z,0.50
2022-08-21T09:48:18.633Z,0.45
2022-08-21T09:50:45.734Z,0.20
2022-08-21T09:53:27.171Z,0.30
2022-08-21T09:56:13.824Z,0.30
2022-08-21T09:58:42.543Z,0.30
2022-08-21T10:01:15.007Z,0.47
2022-08-21T10:03:41.716Z,0.30
2022-08-21T10:06:11.676Z,0.30
2022-08-21T10:08:39.046Z,0.30
2022-08-21T10:11:07.125Z,0.25
2022-08-21T10:13:45.792Z,0.30
2022-08-21T10:16:12.215Z,0.20
2022-08-21T10:18:43.449Z,0.40
2022-08-21T10:21:15.009Z,0.30
2022-08-21T10:24:00.542Z,0.30
2022-08-21T10:26:30.052Z,0.40
2022-08-21T10:29:22.358Z,0.40
2022-08-21T10:31:57.722Z,0.22
2022-08-21T10:34:36.897Z,0.30
2022-08-21T10:37:11.254Z,0.40
2022-08-21T10:39:55.348Z,0.40
2022-08-21T10:42:29.213Z,0.20
2022-08-21T10:45:01.723Z,0.20
2022-08-21T10:47:32.056Z,0.30
2022-08-21T10:50:24.858Z,0.30
2022-08-21T10:53:08.692Z,0.30
2022-08-21T10:55:37.529Z,0.30
2022-08-21T10:58:03.979Z,0.30
2022-08-21T11:00:41.402Z,0.40
2022-08-21T11:03:13.780Z,0.32
2022-08-21T11:05:47.563Z,0.40
2022-08-21T11:08:19.838Z,0.30
2022-08-21T11:10:59.206Z,0.40
2022-08-21T11:13:32.377Z,0.30
2022-08-21T11:15:58.840Z,0.45
2022-08-21T11:18:28.450Z,0.40
2022-08-21T11:21:02.257Z,0.35
2022-08-21T11:23:37.713Z,0.43
2022-08-21T11:26:08.764Z,0.40
2022-08-21T11:28:45.227Z,0.33
2022-08-21T11:31:32.000Z,0.30
2022-08-21T11:34:18.196Z,0.30
2022-08-21T11:36:51.212Z,0.40
2022-08-21T11:39:30.296Z,0.40
2022-08-21T11:42:13.744Z,0.30
2022-08-21T11:44:43.490Z,0.32
2022-08-21T11:47:20.848Z,0.50
2022-08-21T11:50:06.250Z,0.35
2022-08-21T11:52:58.056Z,0.30
2022-08-21T11:55:30.585Z,0.35
2022-08-21T11:58:01.157Z,0.45
2022-08-21T12:00:30.657Z,0.50
2022-08-21T12:02:59.353Z,0.40
2022-08-21T12:05:34.887Z,0.40
2022-08-21T12:08:06.689Z,0.40
2022-08-21T12:10:38.570Z,0.40
2022-08-21T12:15:32.326Z,0.50
2022-08-21T12:18:18.711Z,0.40
2022-08-21T12:20:57.397Z,0.30
2022-08-21T12:23:31.933Z,0.30
2022-08-21T12:26:04.549Z,0.40
2022-08-21T12:28:32.035Z,0.30
2022-08-21T12:30:58.612Z,0.50
2022-08-21T12:33:28.970Z,0.50
2022-08-21T12:36:03.217Z,0.50
2022-08-21T12:38:35.644Z,0.40
2022-08-21T12:41:04.407Z,0.50
2022-08-21T12:43:39.514Z,0.60
2022-08-21T12:46:06.276Z,0.40
2022-08-21T12:48:32.706Z,0.55
2022-08-21T12:51:19.411Z,0.60
2022-08-21T12:53:53.683Z,0.57
2022-08-21T12:56:22.370Z,0.50
2022-08-21T12:58:56.384Z,0.40
2022-08-21T13:01:29.878Z,0.50
2022-08-21T13:04:04.859Z,0.45
2022-08-21T13:06:34.186Z,0.43
2022-08-21T13:09:07.381Z,0.35
2022-08-21T13:11:34.312Z,0.57
2022-08-21T13:14:04.788Z,0.70
2022-08-21T13:16:32.367Z,0.68
2022-08-21T13:19:03.505Z,0.60
2022-08-21T13:21:31.944Z,0.45
2022-08-21T13:24:32.087Z,0.52
2022-08-21T13:27:00.900Z,0.60
2022-08-21T13:29:32.726Z,0.50
2022-08-21T13:32:03.538Z,0.65
2022-08-21T13:34:32.739Z,0.70
2022-08-21T13:37:00.836Z,0.60
2022-08-21T13:39:27.484Z,0.65
2022-08-21T13:41:57.001Z,0.60
2022-08-21T13:44:27.458Z,0.70
2022-08-21T13:46:54.963Z,0.63
2022-08-21T13:49:23.657Z,0.90
2022-08-21T13:51:51.817Z,0.80
2022-08-21T13:54:40.791Z,0.85
2022-08-21T13:57:18.283Z,0.93
2022-08-21T13:59:48.599Z,0.70
2022-08-21T14:02:25.183Z,0.70
2022-08-21T14:05:01.510Z,1.00
2022-08-21T14:07:34.127Z,0.63
2022-08-21T14:10:30.605Z,0.70
2022-08-21T14:13:02.053Z,0.90
2022-08-21T14:15:30.065Z,0.77
2022-08-21T14:18:08.104Z,0.70
2022-08-21T14:20:35.803Z,0.70
2022-08-21T14:23:02.400Z,0.98
2022-08-21T14:25:40.779Z,1.00
2022-08-21T14:28:20.068Z,1.08
2022-08-21T14:30:47.234Z,0.73
2022-08-21T14:33:18.963Z,1.08
2022-08-21T14:35:45.920Z,0.80
2022-08-21T14:38:14.162Z,0.80
2022-08-21T14:40:41.176Z,0.90
2022-08-21T14:43:09.113Z,1.05
2022-08-21T14:45:37.571Z,0.82
2022-08-21T14:48:04.050Z,0.90
2022-08-21T14:50:31.161Z,1.08
2022-08-21T14:52:57.815Z,1.10
2022-08-21T14:55:24.372Z,0.90
2022-08-21T14:57:51.899Z,0.73
2022-08-21T15:00:20.692Z,0.95
2022-08-21T15:02:47.411Z,0.90
2022-08-21T15:05:15.856Z,1.00
2022-08-21T15:07:51.239Z,0.93
2022-08-21T15:10:17.683Z,0.90
2022-08-21T15:12:44.198Z,0.90
2022-08-21T15:15:10.840Z,1.00
2022-08-21T15:17:37.727Z,0.98
2022-08-21T15:20:07.136Z,1.10
2022-08-21T15:22:34.575Z,0.90
2022-08-21T15:25:02.107Z,0.90
2022-08-21T15:27:29.294Z,0.80
2022-08-21T15:29:55.878Z,0.95
2022-08-21T15:32:23.993Z,1.15
2022-08-21T15:34:51.364Z,1.00
2022-08-21T15:37:17.877Z,0.98
2022-08-21T15:39:47.282Z,0.85
2022-08-21T15:42:16.909Z,0.80
2022-08-21T15:44:44.059Z,0.80
2022-08-21T15:47:15.368Z,1.00
2022-08-21T15:49:45.836Z,0.70
2022-08-21T15:52:13.479Z,0.77
2022-08-21T15:54:40.569Z,0.95
2022-08-21T15:57:07.117Z,0.60
2022-08-21T15:59:40.484Z,0.70
2022-08-21T16:02:10.556Z,0.90
2022-08-21T16:04:37.101Z,0.90
2022-08-21T16:07:08.974Z,0.85
2022-08-21T16:09:36.148Z,0.90
2022-08-21T16:12:02.857Z,1.10
2022-08-21T16:14:30.586Z,1.02
2022-08-21T16:16:57.171Z,0.90
2022-08-21T16:19:23.628Z,0.90
2022-08-21T16:21:50.353Z,0.95
2022-08-21T16:24:16.795Z,1.00
2022-08-21T16:26:43.276Z,0.77
2022-08-21T16:29:10.104Z,0.90
2022-08-21T16:31:36.986Z,0.70
2022-08-21T16:34:03.687Z,1.00
2022-08-21T16:36:30.202Z,0.90
2022-08-21T16:38:57.575Z,0.82
2022-08-21T16:41:25.757Z,0.88
2022-08-21T16:43:52.360Z,0.80
2022-08-21T16:46:20.703Z,0.80
2022-08-21T16:48:47.748Z,0.88
2022-08-21T16:51:15.492Z,1.02
2022-08-21T16:53:42.880Z,1.13
2022-08-21T16:56:10.077Z,0.90
2022-08-21T16:58:37.741Z,0.85
2022-08-21T17:01:05.774Z,0.80
2022-08-21T17:03:34.101Z,0.80
2022-08-21T17:06:01.357Z,0.70
2022-08-21T17:08:28.273Z,0.80
2022-08-21T17:10:55.769Z,0.80
2022-08-21T17:13:22.520Z,0.70
2022-08-21T17:15:49.001Z,0.70
2022-08-21T17:18:17.381Z,0.75
2022-08-21T17:20:43.987Z,0.80
2022-08-21T17:23:10.586Z,0.77
2022-08-21T17:25:37.830Z,0.80
2022-08-21T17:28:04.304Z,0.60
2022-08-21T17:30:31.259Z,0.90
2022-08-21T17:32:58.505Z,0.47
2022-08-21T17:35:25.191Z,0.55
2022-08-21T17:37:53.513Z,0.80
2022-08-21T17:40:20.448Z,0.75
2022-08-21T17:42:47.932Z,0.70
2022-08-21T17:45:15.978Z,0.70
2022-08-21T17:47:42.712Z,0.70
2022-08-21T17:50:10.323Z,0.60
2022-08-21T17:56:24.046Z,0.60
2022-08-21T18:02:03.494Z,0.80
2022-08-21T18:07:56.728Z,0.70
2022-08-21T18:10:42.930Z,0.80
2022-08-21T18:13:30.859Z,0.70
2022-08-21T18:23:06.229Z,0.60
2022-08-21T18:25:33.894Z,0.43
2022-08-21T18:28:02.679Z,0.70
2022-08-21T18:33:58.425Z,0.43
2022-08-21T18:36:26.510Z,0.50
2022-08-21T18:38:53.381Z,0.50
2022-08-21T18:44:49.129Z,0.90
2022-08-21T18:47:26.458Z,0.68
2022-08-21T18:50:03.185Z,0.77
2022-08-21T18:52:34.780Z,0.70
2022-08-21T18:57:51.711Z,0.82
2022-08-21T19:00:25.306Z,0.75
2022-08-21T19:03:05.946Z,0.43
2022-08-21T19:05:47.210Z,0.73
2022-08-21T19:08:15.649Z,0.40
2022-08-21T19:10:43.660Z,0.60
2022-08-21T19:13:13.539Z,0.68
2022-08-21T19:15:41.285Z,0.47
2022-08-21T19:18:10.525Z,0.50
2022-08-21T19:20:44.268Z,0.60
2022-08-21T19:23:17.607Z,0.65
2022-08-21T19:25:45.799Z,0.60
2022-08-21T19:28:23.787Z,0.65
2022-08-21T19:33:29.650Z,0.63
2022-08-21T19:36:46.686Z,0.50
2022-08-21T19:39:16.961Z,0.40
2022-08-21T19:44:15.066Z,0.40
2022-08-21T19:46:42.495Z,0.60
2022-08-21T19:49:20.814Z,0.45
2022-08-21T19:51:49.058Z,0.50
2022-08-21T19:54:21.741Z,0.30
2022-08-21T19:56:48.748Z,0.40
2022-08-21T19:59:24.944Z,0.30
2022-08-21T20:01:51.757Z,0.40
2022-08-21T20:04:19.351Z,0.45
2022-08-21T20:06:46.187Z,0.40
2022-08-21T20:09:14.427Z,0.50
2022-08-21T20:11:51.924Z,0.50
2022-08-21T20:14:20.846Z,0.30
2022-08-21T20:16:48.554Z,0.60
2022-08-21T20:21:58.439Z,0.30
2022-08-21T20:24:27.449Z,0.43
2022-08-21T20:26:54.482Z,0.45
2022-08-21T20:29:43.019Z,0.45
2022-08-21T20:33:09.871Z,0.40
2022-08-21T20:39:14.511Z,0.40
2022-08-21T20:41:41.824Z,0.40
2022-08-21T20:51:03.157Z,0.20
2022-08-21T20:53:42.889Z,0.30
2022-08-21T20:56:33.432Z,0.40
2022-08-21T20:59:03.516Z,0.40
2022-08-21T21:01:32.781Z,0.40
2022-08-21T21:14:45.817Z,0.40
2022-08-21T21:17:51.699Z,0.30
2022-08-21T21:20:27.206Z,0.43
2022-08-21T21:22:56.826Z,0.43
2022-08-21T21:25:56.007Z,0.30
2022-08-21T21:28:29.923Z,0.40
2022-08-21T21:30:59.798Z,0.50
2022-08-21T21:33:37.108Z,0.30
2022-08-21T21:36:28.873Z,0.40
2022-08-21T21:39:11.878Z,0.30
2022-08-21T21:41:54.248Z,0.40
2022-08-21T21:46:54.484Z,0.40
2022-08-21T21:49:33.145Z,0.40
2022-08-21T21:52:19.652Z,0.30
2022-08-21T21:54:54.331Z,0.30
2022-08-21T21:57:41.161Z,0.50
2022-08-21T22:00:13.407Z,0.50
2022-08-21T22:02:42.971Z,0.30
2022-08-21T22:05:09.545Z,0.40
2022-08-21T22:07:36.136Z,0.40
2022-08-21T22:10:06.481Z,0.30
2022-08-21T22:12:53.732Z,0.40
2022-08-21T22:18:09.337Z,0.40
2022-08-21T22:20:46.178Z,0.35
2022-08-21T22:23:16.141Z,0.20
2022-08-21T22:25:44.363Z,0.50
2022-08-21T22:28:13.692Z,0.30
2022-08-21T22:30:48.790Z,0.50
2022-08-21T22:33:20.257Z,0.30
2022-08-21T22:35:47.620Z,0.40
2022-08-21T22:41:13.481Z,0.38
2022-08-21T22:43:52.194Z,0.30
2022-08-21T22:46:28.011Z,0.40
2022-08-21T22:48:58.934Z,0.20
2022-08-21T22:51:37.075Z,0.70
2022-08-21T22:54:04.859Z,0.35
2022-08-21T22:56:45.972Z,0.45
2022-08-21T22:59:28.045Z,0.55
2022-08-21T23:02:00.404Z,0.50
2022-08-21T23:04:27.650Z,0.45
2022-08-21T23:06:56.388Z,0.40
2022-08-21T23:09:27.356Z,0.40
2022-08-21T23:11:55.590Z,0.50
2022-08-21T23:14:23.941Z,0.40
2022-08-21T23:17:02.737Z,0.40
2022-08-21T23:19:40.791Z,0.55
2022-08-21T23:22:19.470Z,0.40
2022-08-21T23:24:49.783Z,0.50
2022-08-21T23:27:22.679Z,0.50
2022-08-21T23:29:56.542Z,0.40
2022-08-21T23:32:35.695Z,0.30
2022-08-21T23:35:05.701Z,0.40
2022-08-21T23:37:51.426Z,0.40
2022-08-21T23:40:21.389Z,0.35
2022-08-21T23:42:50.994Z,0.40
2022-08-21T23:45:33.070Z,0.40
2022-08-21T23:48:19.841Z,0.45
2022-08-21T23:50:58.873Z,0.40
2022-08-21T23:53:30.247Z,0.40
2022-08-21T23:56:07.859Z,0.43
2022-08-21T23:58:53.431Z,0.40
